createdAt,value
2022-08-05T00:02:15.172Z,6.00
2022-08-05T00:04:43.495Z,4.32
2022-08-05T00:07:26.977Z,5.53
2022-08-05T00:10:02.628Z,4.65
2022-08-05T00:12:30.608Z,3.03
2022-08-05T00:14:57.923Z,3.75
2022-08-05T00:17:26.525Z,8.33
2022-08-05T00:20:02.057Z,5.03
2022-08-05T00:22:30.955Z,4.70
2022-08-05T00:25:01.580Z,7.50
2022-08-05T00:27:36.241Z,4.27
2022-08-05T00:30:04.567Z,7.57
2022-08-05T00:32:32.030Z,5.32
2022-08-05T00:35:07.661Z,3.77
2022-08-05T00:37:52.626Z,7.83
2022-08-05T00:40:27.390Z,7.37
2022-08-05T00:43:07.497Z,6.67
2022-08-05T00:45:43.868Z,6.83
2022-08-05T00:48:31.287Z,6.53
2022-08-05T00:51:09.048Z,6.43
2022-08-05T00:54:02.983Z,3.90
2022-08-05T00:56:35.386Z,8.70
2022-08-05T01:01:52.211Z,8.03
2022-08-05T01:04:30.027Z,5.80
2022-08-05T01:07:02.573Z,4.83
2022-08-05T01:09:32.559Z,5.63
2022-08-05T01:12:09.392Z,6.40
2022-08-05T01:15:35.365Z,6.67
2022-08-05T01:18:01.435Z,6.13
2022-08-05T01:20:48.742Z,9.23
2022-08-05T01:23:34.964Z,6.70
2022-08-05T01:26:06.380Z,7.20
2022-08-05T01:29:23.246Z,9.80
2022-08-05T01:32:12.395Z,9.37
2022-08-05T01:35:12.173Z,7.07
2022-08-05T01:38:03.653Z,6.87
2022-08-05T01:40:35.237Z,6.63
2022-08-05T01:43:07.232Z,7.93
2022-08-05T01:45:56.087Z,8.63
2022-08-05T01:48:59.147Z,11.30
2022-08-05T01:54:17.976Z,6.77
2022-08-05T01:58:13.083Z,8.40
2022-08-05T02:02:28.436Z,7.70
2022-08-05T02:04:59.789Z,7.40
2022-08-05T02:07:31.901Z,9.13
2022-08-05T02:10:01.372Z,8.70
2022-08-05T02:12:46.147Z,10.47
2022-08-05T02:15:23.831Z,8.40
2022-08-05T02:18:32.359Z,11.20
2022-08-05T02:21:22.492Z,14.87
2022-08-05T02:23:53.170Z,7.70
2022-08-05T02:26:26.728Z,12.30
2022-08-05T02:28:55.855Z,14.90
2022-08-05T02:31:34.998Z,10.37
2022-08-05T02:34:10.192Z,9.30
2022-08-05T02:36:38.157Z,9.80
2022-08-05T02:39:08.820Z,11.13
2022-08-05T02:41:57.615Z,8.33
2022-08-05T02:44:25.589Z,9.13
2022-08-05T02:47:00.317Z,14.07
2022-08-05T02:52:05.647Z,12.97
2022-08-05T02:54:37.032Z,13.70
2022-08-05T02:58:10.335Z,13.00
2022-08-05T02:59:59.671Z,13.10
2022-08-05T03:02:34.684Z,11.20
2022-08-05T03:05:02.903Z,13.53
2022-08-05T03:08:00.408Z,9.13
2022-08-05T03:10:24.484Z,10.23
2022-08-05T03:12:53.195Z,9.27
2022-08-05T03:15:23.787Z,12.87
2022-08-05T03:17:54.125Z,11.90
2022-08-05T03:20:24.264Z,12.83
2022-08-05T03:22:51.839Z,10.70
2022-08-05T03:25:32.741Z,11.43
2022-08-05T03:28:08.799Z,11.67
2022-08-05T03:30:38.350Z,8.67
2022-08-05T03:33:08.702Z,13.27
2022-08-05T03:35:40.917Z,9.40
2022-08-05T03:38:11.294Z,10.80
2022-08-05T03:40:47.539Z,17.37
2022-08-05T03:44:08.122Z,17.60
2022-08-05T03:46:04.904Z,14.37
2022-08-05T03:48:35.362Z,14.03
2022-08-05T03:52:37.089Z,11.03
2022-08-05T03:55:52.581Z,13.33
2022-08-05T03:56:52.172Z,14.20
2022-08-05T03:59:24.726Z,11.43
2022-08-05T04:01:52.752Z,17.37
2022-08-05T04:04:21.070Z,14.43
2022-08-05T04:06:51.326Z,11.40
2022-08-05T04:09:20.449Z,13.93
2022-08-05T04:11:56.501Z,11.60
2022-08-05T04:14:29.438Z,13.60
2022-08-05T04:16:57.060Z,11.00
2022-08-05T04:19:24.240Z,16.03
2022-08-05T04:22:08.895Z,13.33
2022-08-05T04:24:44.526Z,16.43
2022-08-05T04:27:19.528Z,11.90
2022-08-05T04:30:07.468Z,15.90
2022-08-05T04:32:36.493Z,18.93
2022-08-05T04:35:05.150Z,14.27
2022-08-05T04:38:02.386Z,13.53
2022-08-05T04:40:20.536Z,14.10
2022-08-05T04:42:47.871Z,12.83
2022-08-05T04:45:48.533Z,14.57
2022-08-05T04:48:27.428Z,17.70
2022-08-05T04:51:03.097Z,16.87
2022-08-05T04:53:39.033Z,14.73
2022-08-05T04:56:32.659Z,14.07
2022-08-05T04:58:56.801Z,14.47
2022-08-05T05:01:33.495Z,16.87
2022-08-05T05:04:11.374Z,14.83
2022-08-05T05:06:49.087Z,18.20
2022-08-05T05:09:18.477Z,13.30
2022-08-05T05:11:55.597Z,12.17
2022-08-05T05:14:32.089Z,13.37
2022-08-05T05:17:03.385Z,15.93
2022-08-05T05:19:37.060Z,11.13
2022-08-05T05:22:23.489Z,13.10
2022-08-05T05:24:56.957Z,15.10
2022-08-05T05:27:44.994Z,11.30
2022-08-05T05:30:15.508Z,11.00
2022-08-05T05:32:56.319Z,13.43
2022-08-05T05:35:23.795Z,14.10
2022-08-05T05:38:00.285Z,18.13
2022-08-05T05:40:29.923Z,13.70
2022-08-05T05:42:57.747Z,14.00
2022-08-05T05:45:25.259Z,13.07
2022-08-05T05:48:05.378Z,17.13
2022-08-05T05:50:44.115Z,10.30
2022-08-05T05:53:20.904Z,11.23
2022-08-05T05:55:51.493Z,12.80
2022-08-05T05:58:30.263Z,11.27
2022-08-05T06:01:02.205Z,12.23
2022-08-05T06:04:01.415Z,10.00
2022-08-05T06:06:31.130Z,12.47
2022-08-05T06:09:00.616Z,11.53
2022-08-05T06:11:29.012Z,12.43
2022-08-05T06:13:56.998Z,13.90
2022-08-05T06:16:30.748Z,12.20
2022-08-05T06:19:05.923Z,10.47
2022-08-05T06:21:42.891Z,18.80
2022-08-05T06:24:17.153Z,15.37
2022-08-05T06:26:53.259Z,12.03
2022-08-05T06:29:25.145Z,10.97
2022-08-05T06:32:21.004Z,8.07
2022-08-05T06:34:53.469Z,10.67
2022-08-05T06:37:57.525Z,10.23
2022-08-05T06:40:11.767Z,9.90
2022-08-05T06:42:39.689Z,9.10
2022-08-05T06:45:08.523Z,11.73
2022-08-05T06:48:44.067Z,10.50
2022-08-05T06:50:23.518Z,7.93
2022-08-05T06:53:03.556Z,11.20
2022-08-05T06:55:38.272Z,8.80
2022-08-05T06:58:19.899Z,9.53
2022-08-05T07:00:59.877Z,8.97
2022-08-05T07:03:32.795Z,8.93
2022-08-05T07:06:05.894Z,9.47
2022-08-05T07:08:41.987Z,12.83
2022-08-05T07:11:15.367Z,9.67
2022-08-05T07:14:02.246Z,7.07
2022-08-05T07:17:56.503Z,13.00
2022-08-05T07:20:23.121Z,8.87
2022-08-05T07:22:29.078Z,9.50
2022-08-05T07:25:22.006Z,8.73
2022-08-05T07:27:57.792Z,15.53
2022-08-05T07:30:32.715Z,10.93
2022-08-05T07:33:01.168Z,14.60
2022-08-05T07:35:56.065Z,12.70
2022-08-05T07:38:26.354Z,9.97
2022-08-05T07:41:16.771Z,13.40
2022-08-05T07:43:49.159Z,9.63
2022-08-05T07:46:24.552Z,12.10
2022-08-05T07:49:02.363Z,11.00
2022-08-05T07:51:37.215Z,10.77
2022-08-05T07:54:10.062Z,11.93
2022-08-05T07:57:13.740Z,10.47
2022-08-05T07:59:38.223Z,12.67
2022-08-05T08:02:15.929Z,8.90
2022-08-05T08:04:44.854Z,9.83
2022-08-05T08:07:12.500Z,8.67
2022-08-05T08:09:39.785Z,8.93
2022-08-05T08:12:19.936Z,8.57
2022-08-05T08:14:54.423Z,7.93
2022-08-05T08:17:22.051Z,6.20
2022-08-05T08:20:21.696Z,8.83
2022-08-05T08:22:38.159Z,9.70
2022-08-05T08:25:16.251Z,6.87
2022-08-05T08:27:47.948Z,7.70
2022-08-05T08:30:32.595Z,6.27
2022-08-05T08:33:13.765Z,9.23
2022-08-05T08:35:52.921Z,8.90
2022-08-05T08:38:35.108Z,8.13
2022-08-05T08:41:05.616Z,7.57
2022-08-05T08:45:19.669Z,7.53
2022-08-05T08:46:22.051Z,5.93
2022-08-05T08:49:08.019Z,5.63
2022-08-05T08:52:03.268Z,8.27
2022-08-05T08:54:27.122Z,6.47
2022-08-05T08:56:56.492Z,8.60
2022-08-05T08:59:27.727Z,6.80
2022-08-05T09:02:01.998Z,8.57
2022-08-05T09:04:30.738Z,6.43
2022-08-05T09:06:58.803Z,10.23
2022-08-05T09:09:34.839Z,6.30
2022-08-05T09:12:19.875Z,7.23
2022-08-05T09:14:56.618Z,6.13
2022-08-05T09:17:41.417Z,6.23
2022-08-05T09:20:11.065Z,5.67
2022-08-05T09:23:04.845Z,6.97
2022-08-05T09:26:00.240Z,6.47
2022-08-05T09:28:31.544Z,11.43
2022-08-05T09:31:43.709Z,6.80
2022-08-05T09:34:04.891Z,5.53
2022-08-05T09:36:54.473Z,7.67
2022-08-05T09:39:27.573Z,5.77
2022-08-05T09:42:08.542Z,4.87
2022-08-05T09:44:42.717Z,6.27
2022-08-05T09:47:16.331Z,4.20
2022-08-05T09:50:02.315Z,7.07
2022-08-05T09:52:41.848Z,5.47
2022-08-05T09:55:57.214Z,7.37
2022-08-05T09:58:00.374Z,3.70
2022-08-05T10:00:30.451Z,5.03
2022-08-05T10:02:59.143Z,3.87
2022-08-05T10:05:27.917Z,4.33
2022-08-05T10:08:37.008Z,5.43
2022-08-05T10:10:53.977Z,5.13
2022-08-05T10:13:47.262Z,5.93
2022-08-05T10:16:33.882Z,3.83
2022-08-05T10:19:08.604Z,6.43
2022-08-05T10:21:40.421Z,6.43
2022-08-05T10:24:10.770Z,5.00
2022-08-05T10:26:52.199Z,5.97
2022-08-05T10:29:24.188Z,3.83
2022-08-05T10:32:52.274Z,5.60
2022-08-05T10:35:00.986Z,4.80
2022-08-05T10:37:37.502Z,6.43
2022-08-05T10:40:27.992Z,9.97
2022-08-05T10:42:59.107Z,5.17
2022-08-05T10:45:39.702Z,4.30
2022-08-05T10:48:57.070Z,5.80
2022-08-05T10:51:29.302Z,4.70
2022-08-05T10:54:05.791Z,3.93
2022-08-05T10:56:49.591Z,5.17
2022-08-05T11:00:03.477Z,5.97
2022-08-05T11:02:37.508Z,3.03
2022-08-05T11:05:04.251Z,2.90
2022-08-05T11:07:33.157Z,4.13
2022-08-05T11:10:27.194Z,3.93
2022-08-05T11:12:56.010Z,2.77
2022-08-05T11:15:59.984Z,4.03
2022-08-05T11:18:32.425Z,4.63
2022-08-05T11:21:02.799Z,4.63
2022-08-05T11:24:04.139Z,3.20
2022-08-05T11:26:28.404Z,2.30
2022-08-05T11:29:12.756Z,2.95
2022-08-05T11:31:57.116Z,3.78
2022-08-05T11:34:51.051Z,2.55
2022-08-05T11:38:30.517Z,2.45
2022-08-05T11:40:44.095Z,3.07
2022-08-05T11:43:20.745Z,1.83
2022-08-05T11:46:27.521Z,2.67
2022-08-05T11:48:56.231Z,2.20
2022-08-05T11:51:44.138Z,3.28
2022-08-05T11:54:13.949Z,3.50
2022-08-05T11:56:50.169Z,2.97
2022-08-05T11:59:21.301Z,3.65
2022-08-05T12:02:00.072Z,3.05
2022-08-05T12:04:28.768Z,2.88
2022-08-05T12:07:01.340Z,3.92
2022-08-05T12:09:38.700Z,5.25
2022-08-05T12:12:30.350Z,3.20
2022-08-05T12:14:58.723Z,3.60
2022-08-05T12:18:03.375Z,3.05
2022-08-05T12:20:26.184Z,4.30
2022-08-05T12:23:11.305Z,2.75
2022-08-05T12:25:56.513Z,3.08
2022-08-05T12:28:31.489Z,3.90
2022-08-05T12:31:02.433Z,2.70
2022-08-05T12:33:36.678Z,3.40
2022-08-05T12:36:08.628Z,3.85
2022-08-05T12:38:40.405Z,2.92
2022-08-05T12:41:13.089Z,6.50
2022-08-05T12:43:54.740Z,3.67
2022-08-05T12:46:31.441Z,3.75
2022-08-05T12:49:13.424Z,3.80
2022-08-05T12:52:12.036Z,4.80
2022-08-05T12:54:49.735Z,3.60
2022-08-05T12:57:17.660Z,4.15
2022-08-05T13:01:56.729Z,6.22
2022-08-05T13:02:40.219Z,4.72
2022-08-05T13:05:08.518Z,3.20
2022-08-05T13:07:59.042Z,3.53
2022-08-05T13:10:28.645Z,3.47
2022-08-05T13:12:58.770Z,4.22
2022-08-05T13:15:41.680Z,7.25
2022-08-05T13:18:19.937Z,6.18
2022-08-05T13:20:48.989Z,5.47
2022-08-05T13:23:22.770Z,5.20
2022-08-05T13:25:59.310Z,6.68
2022-08-05T13:28:28.850Z,2.95
2022-08-05T13:30:57.119Z,4.38
2022-08-05T13:34:21.275Z,2.40
2022-08-05T13:36:14.552Z,3.08
2022-08-05T13:38:43.107Z,2.97
2022-08-05T13:41:11.765Z,8.15
2022-08-05T13:43:44.270Z,2.47
2022-08-05T13:46:43.916Z,5.13
2022-08-05T13:49:13.735Z,2.75
2022-08-05T13:51:46.148Z,2.88
2022-08-05T13:54:15.415Z,2.65
2022-08-05T13:56:45.398Z,1.35
2022-08-05T13:59:20.297Z,6.82
2022-08-05T14:01:57.717Z,4.72
2022-08-05T14:05:00.797Z,1.80
2022-08-05T14:08:00.266Z,1.33
2022-08-05T14:10:28.593Z,1.55
2022-08-05T14:12:59.645Z,2.72
2022-08-05T14:16:08.817Z,1.83
2022-08-05T14:18:18.182Z,3.90
2022-08-05T14:20:48.042Z,3.00
2022-08-05T14:23:24.537Z,1.20
2022-08-05T14:25:57.921Z,2.78
2022-08-05T14:28:26.685Z,0.95
2022-08-05T14:30:54.851Z,1.15
2022-08-05T14:33:23.998Z,3.00
2022-08-05T14:35:54.566Z,2.83
2022-08-05T14:38:32.979Z,1.45
2022-08-05T14:41:06.046Z,1.38
2022-08-05T14:43:59.587Z,1.77
2022-08-05T14:46:23.464Z,1.88
2022-08-05T14:48:56.760Z,3.30
2022-08-05T14:51:26.475Z,2.03
2022-08-05T14:54:26.903Z,1.50
2022-08-05T14:56:46.897Z,1.58
2022-08-05T14:59:15.188Z,4.28
2022-08-05T15:01:48.719Z,0.98
2022-08-05T15:04:17.694Z,0.97
2022-08-05T15:06:49.239Z,0.80
2022-08-05T15:09:17.140Z,0.95
2022-08-05T15:12:04.690Z,1.55
2022-08-05T15:14:34.447Z,0.88
2022-08-05T15:17:10.005Z,1.10
2022-08-05T15:19:56.984Z,0.95
2022-08-05T15:22:26.808Z,1.35
2022-08-05T15:24:55.453Z,1.53
2022-08-05T15:27:25.404Z,2.03
2022-08-05T15:29:56.502Z,0.70
2022-08-05T15:32:27.134Z,0.80
2022-08-05T15:34:59.258Z,0.80
2022-08-05T15:38:34.338Z,0.83
2022-08-05T15:41:02.190Z,0.80
2022-08-05T15:43:12.768Z,2.43
2022-08-05T15:45:46.162Z,0.77
2022-08-05T15:48:15.134Z,1.70
2022-08-05T15:50:43.780Z,1.07
2022-08-05T15:53:13.116Z,0.80
2022-08-05T15:56:03.462Z,2.63
2022-08-05T15:58:29.896Z,0.80
2022-08-05T16:01:11.735Z,1.27
2022-08-05T16:03:48.444Z,1.57
2022-08-05T16:06:19.843Z,1.47
2022-08-05T16:08:48.190Z,1.83
2022-08-05T16:11:18.647Z,0.80
2022-08-05T16:13:48.613Z,0.85
2022-08-05T16:16:25.457Z,1.27
2022-08-05T16:18:53.110Z,0.60
2022-08-05T16:21:20.749Z,1.53
2022-08-05T16:24:35.809Z,1.00
2022-08-05T16:26:59.477Z,3.53
2022-08-05T16:29:28.460Z,1.73
2022-08-05T16:31:58.727Z,0.70
2022-08-05T16:34:27.245Z,0.93
2022-08-05T16:36:55.013Z,3.20
2022-08-05T16:39:24.201Z,0.73
2022-08-05T16:42:27.858Z,0.60
2022-08-05T16:44:58.668Z,0.90
2022-08-05T16:47:35.933Z,1.30
2022-08-05T16:50:10.524Z,1.50
2022-08-05T16:52:38.056Z,1.13
2022-08-05T16:55:13.555Z,3.67
2022-08-05T16:57:53.200Z,0.83
2022-08-05T17:00:35.017Z,1.03
2022-08-05T17:03:15.434Z,2.53
2022-08-05T17:05:54.057Z,0.70
2022-08-05T17:08:35.974Z,3.40
2022-08-05T17:11:12.701Z,1.80
2022-08-05T17:13:44.741Z,0.93
2022-08-05T17:16:29.653Z,0.70
2022-08-05T17:19:01.685Z,1.60
2022-08-05T17:21:35.458Z,1.80
2022-08-05T17:24:28.103Z,1.43
2022-08-05T17:26:51.161Z,0.83
2022-08-05T17:29:22.545Z,0.70
2022-08-05T17:32:01.620Z,1.23
2022-08-05T17:34:29.725Z,0.60
2022-08-05T17:37:01.671Z,1.23
2022-08-05T17:39:34.152Z,1.10
2022-08-05T17:42:17.417Z,3.20
2022-08-05T17:44:50.297Z,2.83
2022-08-05T17:47:22.438Z,0.80
2022-08-05T17:50:03.466Z,0.73
2022-08-05T17:52:53.400Z,1.30
2022-08-05T17:55:34.380Z,0.83
2022-08-05T17:58:04.864Z,1.30
2022-08-05T18:00:36.923Z,1.00
2022-08-05T18:06:11.671Z,0.83
2022-08-05T18:08:52.015Z,1.20
2022-08-05T18:11:24.516Z,1.10
2022-08-05T18:13:59.632Z,1.87
2022-08-05T18:16:27.783Z,1.97
2022-08-05T18:18:55.295Z,1.00
2022-08-05T18:21:26.064Z,3.63
2022-08-05T18:26:32.107Z,1.47
2022-08-05T18:29:02.447Z,1.70
2022-08-05T18:31:33.784Z,1.70
2022-08-05T18:34:03.095Z,1.13
2022-08-05T18:36:35.344Z,1.00
2022-08-05T18:39:03.308Z,1.00
2022-08-05T18:41:58.087Z,2.00
2022-08-05T18:44:34.792Z,1.30
2022-08-05T18:47:03.944Z,3.73
2022-08-05T18:49:58.422Z,5.60
2022-08-05T18:52:35.630Z,1.60
2022-08-05T18:55:10.996Z,1.23
2022-08-05T18:57:53.479Z,0.97
2022-08-05T19:00:26.945Z,6.73
2022-08-05T19:02:56.964Z,1.40
2022-08-05T19:06:13.002Z,4.50
2022-08-05T19:08:15.427Z,0.83
2022-08-05T19:10:47.160Z,1.93
2022-08-05T19:13:16.363Z,1.47
2022-08-05T19:15:57.411Z,1.30
2022-08-05T19:18:29.125Z,1.83
2022-08-05T19:20:56.616Z,2.70
2022-08-05T19:24:05.141Z,4.17
2022-08-05T19:26:13.385Z,1.70
2022-08-05T19:51:00.729Z,1.20
2022-08-05T19:54:05.192Z,2.53
2022-08-05T19:56:32.415Z,3.33
2022-08-05T19:59:51.590Z,0.90
2022-08-05T20:02:05.469Z,1.93
2022-08-05T20:04:36.128Z,1.87
2022-08-05T20:07:13.223Z,1.00
2022-08-05T20:09:55.180Z,1.43
2022-08-05T20:12:28.818Z,1.70
2022-08-05T20:17:42.776Z,2.27
2022-08-05T20:20:17.960Z,2.00
2022-08-05T20:28:38.631Z,2.37
2022-08-05T20:29:00.762Z,1.47
2022-08-05T20:31:05.978Z,2.30
2022-08-05T20:33:35.408Z,2.70
2022-08-05T20:36:06.228Z,2.10
2022-08-05T20:38:53.462Z,0.93
2022-08-05T20:41:27.007Z,0.70
2022-08-05T20:44:18.507Z,1.63
2022-08-05T20:46:47.052Z,1.10
2022-08-05T20:49:14.698Z,1.17
2022-08-05T20:51:53.785Z,2.03
2022-08-05T20:54:21.656Z,3.33
2022-08-05T20:56:49.413Z,1.10
2022-08-05T20:59:19.052Z,1.53
2022-08-05T21:01:57.268Z,0.80
2022-08-05T21:04:28.227Z,3.03
2022-08-05T21:06:56.374Z,6.43
2022-08-05T21:09:23.643Z,2.47
2022-08-05T21:12:06.854Z,1.70
2022-08-05T21:14:38.264Z,2.20
2022-08-05T21:17:06.018Z,2.63
2022-08-05T21:19:47.502Z,1.37
2022-08-05T21:22:21.751Z,2.10
2022-08-05T21:24:54.301Z,2.50
2022-08-05T21:27:25.098Z,1.10
2022-08-05T21:29:53.969Z,4.20
2022-08-05T21:32:22.631Z,1.67
2022-08-05T21:34:56.013Z,1.70
2022-08-05T21:37:41.084Z,1.77
2022-08-05T21:40:13.959Z,1.00
2022-08-05T21:42:45.062Z,0.90
2022-08-05T21:45:17.628Z,1.10
2022-08-05T21:47:56.649Z,1.23
2022-08-05T21:50:25.699Z,1.50
2022-08-05T21:52:58.904Z,1.63
2022-08-05T21:56:01.457Z,1.07
2022-08-05T21:58:20.416Z,1.57
2022-08-05T22:00:56.194Z,1.63
2022-08-05T22:03:51.691Z,2.03
2022-08-05T22:06:11.132Z,1.00
2022-08-05T22:08:42.495Z,2.33
2022-08-05T22:11:11.890Z,2.30
2022-08-05T22:14:05.817Z,2.00
2022-08-05T22:16:50.805Z,4.67
2022-08-05T22:19:57.176Z,3.03
2022-08-05T22:22:05.640Z,3.40
2022-08-05T22:24:53.478Z,7.10
2022-08-05T22:28:04.989Z,2.20
2022-08-05T22:30:32.490Z,4.77
2022-08-05T22:33:04.052Z,1.40
2022-08-05T22:35:49.159Z,1.57
2022-08-05T22:38:16.943Z,2.97
2022-08-05T22:40:49.842Z,6.10
2022-08-05T22:43:36.964Z,2.23
2022-08-05T22:46:11.900Z,1.30
2022-08-05T22:48:41.692Z,1.60
2022-08-05T22:51:15.694Z,1.77
2022-08-05T22:53:43.524Z,1.43
2022-08-05T22:56:30.001Z,3.20
2022-08-05T22:59:04.187Z,4.47
2022-08-05T23:02:04.293Z,2.13
2022-08-05T23:04:33.702Z,5.27
2022-08-05T23:07:01.296Z,2.63
2022-08-05T23:09:57.759Z,4.27
2022-08-05T23:12:17.924Z,2.53
2022-08-05T23:14:45.934Z,4.70
2022-08-05T23:17:34.656Z,2.93
2022-08-05T23:20:16.410Z,1.83
2022-08-05T23:22:47.151Z,1.80
2022-08-05T23:25:17.690Z,2.10
2022-08-05T23:28:03.053Z,2.73
2022-08-05T23:30:31.198Z,1.57
2022-08-05T23:32:58.896Z,1.53
2022-08-05T23:35:28.558Z,3.10
2022-08-05T23:38:01.854Z,2.93
2022-08-05T23:40:29.248Z,2.37
2022-08-05T23:42:57.791Z,3.70
2022-08-05T23:45:26.157Z,3.30
2022-08-05T23:47:53.910Z,2.70
2022-08-05T23:50:31.836Z,1.83
2022-08-05T23:53:00.775Z,2.73
2022-08-05T23:55:31.068Z,2.70
2022-08-05T23:57:58.616Z,4.40
